createdAt,value
2019-03-26T00:01:55.908Z,6.00
2019-03-26T00:04:24.289Z,10.83
2019-03-26T00:07:00.018Z,9.37
2019-03-26T00:09:32.490Z,6.07
2019-03-26T00:12:03.628Z,7.50
2019-03-26T00:14:33.873Z,12.50
2019-03-26T00:17:05.197Z,7.53
2019-03-26T00:19:37.270Z,6.63
2019-03-26T00:22:06.881Z,5.80
2019-03-26T00:24:35.214Z,6.87
2019-03-26T00:27:08.002Z,7.97
2019-03-26T00:29:36.929Z,6.97
2019-03-26T00:32:07.737Z,8.70
2019-03-26T00:34:39.050Z,7.50
2019-03-26T00:37:10.538Z,11.67
2019-03-26T00:39:39.153Z,9.33
2019-03-26T00:42:09.333Z,8.33
2019-03-26T00:44:40.893Z,8.60
2019-03-26T00:47:12.031Z,7.23
2019-03-26T00:49:43.479Z,12.97
2019-03-26T00:52:11.869Z,8.13
2019-03-26T00:54:43.446Z,10.00
2019-03-26T00:57:13.477Z,7.77
2019-03-26T00:59:44.516Z,6.93
2019-03-26T01:02:12.909Z,11.00
2019-03-26T01:04:41.306Z,6.90
2019-03-26T01:07:14.017Z,6.13
2019-03-26T01:09:42.415Z,11.77
2019-03-26T01:12:10.803Z,10.93
2019-03-26T01:14:39.184Z,9.97
2019-03-26T01:17:10.493Z,10.50
2019-03-26T01:19:48.144Z,9.07
2019-03-26T01:22:16.513Z,10.67
2019-03-26T01:24:44.901Z,6.03
2019-03-26T01:27:18.704Z,9.83
2019-03-26T01:29:47.105Z,8.00
2019-03-26T01:32:18.702Z,12.50
2019-03-26T01:34:47.080Z,8.33
2019-03-26T01:37:18.031Z,14.57
2019-03-26T01:39:46.413Z,10.90
2019-03-26T01:42:17.538Z,5.90
2019-03-26T01:44:51.821Z,9.93
2019-03-26T01:47:20.713Z,10.13
2019-03-26T01:49:52.045Z,5.07
2019-03-26T01:52:45.578Z,8.50
2019-03-26T01:55:16.954Z,11.60
2019-03-26T01:57:46.978Z,7.90
2019-03-26T02:00:19.068Z,10.23
2019-03-26T02:02:47.462Z,8.50
2019-03-26T02:05:23.349Z,5.93
2019-03-26T02:08:02.487Z,10.30
2019-03-26T02:10:21.879Z,14.37
2019-03-26T02:12:51.910Z,10.17
2019-03-26T02:15:30.858Z,9.00
2019-03-26T02:18:00.114Z,10.50
2019-03-26T02:20:31.889Z,10.00
2019-03-26T02:23:00.284Z,8.20
2019-03-26T02:25:31.919Z,11.03
2019-03-26T02:28:03.006Z,12.07
2019-03-26T02:30:32.167Z,10.83
2019-03-26T02:33:03.331Z,6.23
2019-03-26T02:35:31.725Z,9.03
2019-03-26T02:38:00.094Z,7.03
2019-03-26T02:40:30.144Z,8.57
2019-03-26T02:42:58.658Z,11.47
2019-03-26T02:45:27.041Z,13.93
2019-03-26T02:48:04.221Z,10.20
2019-03-26T02:50:35.280Z,10.00
2019-03-26T02:53:08.707Z,12.67
2019-03-26T02:55:38.615Z,13.60
2019-03-26T02:58:07.990Z,10.87
2019-03-26T03:00:39.164Z,11.63
2019-03-26T03:03:07.562Z,10.23
2019-03-26T03:05:36.430Z,14.57
2019-03-26T03:08:11.561Z,10.97
2019-03-26T03:10:44.326Z,12.23
2019-03-26T03:13:21.643Z,10.63
2019-03-26T03:15:50.026Z,10.93
2019-03-26T03:18:19.385Z,9.83
2019-03-26T03:20:48.830Z,11.00
2019-03-26T03:23:20.012Z,10.13
2019-03-26T03:25:50.630Z,12.70
2019-03-26T03:28:19.013Z,14.67
2019-03-26T03:30:47.410Z,14.57
2019-03-26T03:33:15.800Z,14.97
2019-03-26T03:35:52.467Z,12.60
2019-03-26T03:38:19.197Z,8.97
2019-03-26T03:40:47.939Z,15.33
2019-03-26T03:43:20.514Z,11.77
2019-03-26T03:45:49.918Z,13.17
2019-03-26T03:48:20.090Z,11.93
2019-03-26T03:50:50.305Z,8.90
2019-03-26T03:53:21.376Z,10.10
2019-03-26T03:55:53.103Z,16.33
2019-03-26T03:58:23.714Z,12.27
2019-03-26T04:00:54.793Z,9.30
2019-03-26T04:03:23.204Z,14.83
2019-03-26T04:06:07.752Z,15.60
2019-03-26T04:08:21.702Z,13.97
2019-03-26T04:10:50.086Z,11.43
2019-03-26T04:13:20.361Z,10.77
2019-03-26T04:15:49.002Z,10.77
2019-03-26T04:18:20.351Z,9.27
2019-03-26T04:20:50.389Z,20.43
2019-03-26T04:23:18.780Z,15.73
2019-03-26T04:25:47.185Z,19.97
2019-03-26T04:28:21.562Z,14.17
2019-03-26T04:30:54.511Z,16.13
2019-03-26T04:33:27.494Z,21.40
2019-03-26T04:35:55.894Z,21.53
2019-03-26T04:38:27.508Z,28.00
2019-03-26T04:40:55.889Z,21.50
2019-03-26T04:43:29.278Z,24.60
2019-03-26T04:45:57.674Z,21.00
2019-03-26T04:48:30.706Z,27.23
2019-03-26T04:51:00.730Z,19.53
2019-03-26T04:53:34.233Z,19.40
2019-03-26T04:56:08.233Z,19.10
2019-03-26T04:58:39.595Z,14.03
2019-03-26T05:01:09.630Z,15.07
2019-03-26T05:03:38.257Z,21.23
2019-03-26T05:06:08.293Z,21.33
2019-03-26T05:08:36.914Z,23.00
2019-03-26T05:11:08.001Z,19.63
2019-03-26T05:13:38.025Z,17.47
2019-03-26T05:16:09.075Z,19.57
2019-03-26T05:18:41.990Z,17.73
2019-03-26T05:21:16.286Z,16.57
2019-03-26T05:23:44.698Z,22.47
2019-03-26T05:26:17.378Z,20.53
2019-03-26T05:28:49.112Z,18.00
2019-03-26T05:31:17.505Z,16.50
2019-03-26T05:33:45.895Z,17.77
2019-03-26T05:36:14.282Z,19.97
2019-03-26T05:38:43.229Z,17.83
2019-03-26T05:41:11.621Z,35.27
2019-03-26T05:43:44.643Z,18.83
2019-03-26T05:46:16.097Z,22.07
2019-03-26T05:48:47.169Z,21.03
2019-03-26T05:51:20.116Z,19.07
2019-03-26T05:53:57.158Z,17.07
2019-03-26T05:56:25.553Z,23.13
2019-03-26T05:58:59.801Z,24.43
2019-03-26T06:01:28.241Z,28.10
2019-03-26T06:03:56.634Z,31.07
2019-03-26T06:06:27.779Z,30.63
2019-03-26T06:08:56.156Z,24.57
2019-03-26T06:11:29.049Z,24.40
2019-03-26T06:14:00.185Z,27.33
2019-03-26T06:16:38.249Z,33.20
2019-03-26T06:18:58.701Z,33.33
2019-03-26T06:21:27.115Z,32.77
2019-03-26T06:23:55.562Z,37.57
2019-03-26T06:26:34.201Z,25.63
2019-03-26T06:29:02.612Z,18.03
2019-03-26T06:31:31.080Z,17.03
2019-03-26T06:33:59.475Z,13.53
2019-03-26T06:36:33.083Z,19.27
2019-03-26T06:39:07.869Z,16.17
2019-03-26T06:41:36.268Z,14.37
2019-03-26T06:44:04.661Z,16.43
2019-03-26T06:46:33.046Z,16.73
2019-03-26T06:49:04.421Z,12.80
2019-03-26T06:51:32.973Z,17.37
2019-03-26T06:54:01.366Z,16.40
2019-03-26T06:56:29.752Z,15.07
2019-03-26T06:58:58.129Z,9.80
2019-03-26T07:01:26.524Z,9.63
2019-03-26T07:03:54.902Z,8.10
2019-03-26T07:06:23.277Z,8.83
2019-03-26T07:08:54.384Z,5.73
2019-03-26T07:11:32.055Z,6.60
2019-03-26T07:14:02.074Z,8.00
2019-03-26T07:16:41.638Z,5.83
2019-03-26T07:19:18.801Z,6.37
2019-03-26T07:21:49.838Z,9.13
2019-03-26T07:24:20.373Z,7.80
2019-03-26T07:26:53.288Z,8.40
2019-03-26T07:29:21.674Z,10.27
2019-03-26T07:31:52.773Z,6.70
2019-03-26T07:34:21.145Z,5.97
2019-03-26T07:36:51.178Z,5.90
2019-03-26T07:39:19.798Z,12.37
2019-03-26T07:41:48.192Z,11.13
2019-03-26T07:44:16.810Z,12.03
2019-03-26T07:46:48.301Z,6.20
2019-03-26T07:49:16.928Z,4.70
2019-03-26T07:51:45.402Z,5.73
2019-03-26T07:54:15.677Z,6.20
2019-03-26T07:56:46.868Z,5.83
2019-03-26T07:59:18.001Z,9.07
2019-03-26T08:01:49.629Z,7.37
2019-03-26T08:04:18.262Z,6.17
2019-03-26T08:06:48.280Z,7.40
2019-03-26T08:09:17.879Z,4.70
2019-03-26T08:11:52.182Z,10.47
2019-03-26T08:14:20.586Z,8.67
2019-03-26T08:16:52.649Z,7.70
2019-03-26T08:19:21.069Z,7.93
2019-03-26T08:21:49.461Z,5.93
2019-03-26T08:24:20.813Z,7.53
2019-03-26T08:26:51.928Z,5.60
2019-03-26T08:29:19.543Z,5.40
2019-03-26T08:31:47.933Z,9.67
2019-03-26T08:34:16.317Z,6.57
2019-03-26T08:36:46.344Z,9.27
2019-03-26T08:39:14.721Z,5.80
2019-03-26T08:41:43.137Z,5.90
2019-03-26T08:44:14.473Z,7.70
2019-03-26T08:46:46.385Z,6.87
2019-03-26T08:49:15.593Z,8.30
2019-03-26T08:51:50.072Z,9.70
2019-03-26T08:54:18.445Z,7.80
2019-03-26T08:56:49.473Z,6.70
2019-03-26T08:59:18.854Z,5.93
2019-03-26T09:01:58.412Z,7.23
2019-03-26T09:04:27.237Z,7.97
2019-03-26T09:06:56.221Z,13.67
2019-03-26T09:09:24.592Z,8.37
2019-03-26T09:11:57.721Z,12.00
2019-03-26T09:14:28.816Z,9.40
2019-03-26T09:16:57.421Z,7.53
2019-03-26T09:19:25.817Z,13.10
2019-03-26T09:21:54.199Z,10.33
2019-03-26T09:24:27.143Z,11.07
2019-03-26T09:27:01.553Z,7.30
2019-03-26T09:29:30.217Z,11.57
2019-03-26T09:31:58.842Z,10.90
2019-03-26T09:34:29.937Z,14.13
2019-03-26T09:36:58.328Z,15.07
2019-03-26T09:39:28.359Z,15.93
2019-03-26T09:41:59.510Z,15.20
2019-03-26T09:44:27.895Z,16.10
2019-03-26T09:46:57.570Z,13.93
2019-03-26T09:49:25.916Z,21.03
2019-03-26T09:51:56.886Z,14.27
2019-03-26T09:54:25.436Z,20.33
2019-03-26T09:56:53.821Z,17.53
2019-03-26T09:59:22.225Z,18.20
2019-03-26T10:01:50.638Z,21.50
2019-03-26T10:04:20.673Z,23.47
2019-03-26T10:06:51.797Z,20.63
2019-03-26T10:09:20.526Z,20.97
2019-03-26T10:12:10.346Z,21.83
2019-03-26T10:14:38.732Z,18.63
2019-03-26T10:17:07.117Z,26.63
2019-03-26T10:19:39.837Z,22.93
2019-03-26T10:22:09.873Z,17.27
2019-03-26T10:24:40.938Z,18.43
2019-03-26T10:27:22.475Z,21.30
2019-03-26T10:29:42.514Z,23.93
2019-03-26T10:32:10.900Z,17.20
2019-03-26T10:34:39.314Z,20.50
2019-03-26T10:37:09.570Z,16.13
2019-03-26T10:39:39.626Z,18.33
2019-03-26T10:42:19.978Z,16.80
2019-03-26T10:44:48.374Z,14.07
2019-03-26T10:47:16.759Z,13.23
2019-03-26T10:49:45.155Z,16.27
2019-03-26T10:52:13.547Z,15.63
2019-03-26T10:54:44.609Z,13.63
2019-03-26T10:57:17.568Z,17.80
2019-03-26T10:59:51.620Z,20.03
2019-03-26T11:02:23.565Z,15.90
2019-03-26T11:04:51.949Z,13.00
2019-03-26T11:07:20.714Z,15.07
2019-03-26T11:09:49.118Z,14.07
2019-03-26T11:12:21.815Z,15.87
2019-03-26T11:14:50.201Z,15.87
2019-03-26T11:17:18.597Z,18.17
2019-03-26T11:19:47.054Z,14.40
2019-03-26T11:22:19.897Z,17.83
2019-03-26T11:24:49.969Z,17.47
2019-03-26T11:27:18.354Z,15.20
2019-03-26T11:29:46.837Z,14.80
2019-03-26T11:32:15.228Z,16.07
2019-03-26T11:34:43.645Z,16.33
2019-03-26T11:37:12.756Z,13.90
2019-03-26T11:39:41.168Z,15.57
2019-03-26T11:42:14.213Z,18.00
2019-03-26T11:44:43.205Z,15.73
2019-03-26T11:47:17.447Z,13.33
2019-03-26T11:49:45.835Z,14.23
2019-03-26T11:52:18.882Z,13.37
2019-03-26T11:54:47.459Z,14.93
2019-03-26T11:57:17.502Z,16.80
2019-03-26T11:59:46.152Z,15.07
2019-03-26T12:02:14.551Z,20.57
2019-03-26T12:04:45.861Z,17.93
2019-03-26T12:07:15.901Z,13.73
2019-03-26T12:09:48.127Z,13.67
2019-03-26T12:12:19.801Z,13.87
2019-03-26T12:14:48.361Z,13.87
2019-03-26T12:17:16.741Z,13.30
2019-03-26T12:19:45.171Z,13.10
2019-03-26T12:22:16.833Z,20.83
2019-03-26T12:24:46.880Z,11.70
2019-03-26T12:27:18.214Z,12.80
2019-03-26T12:29:49.237Z,15.67
2019-03-26T12:32:17.638Z,14.10
2019-03-26T12:34:48.873Z,13.90
2019-03-26T12:37:17.547Z,14.30
2019-03-26T12:39:58.589Z,15.97
2019-03-26T12:42:16.262Z,11.77
2019-03-26T12:44:44.665Z,12.80
2019-03-26T12:47:19.215Z,17.73
2019-03-26T12:49:47.609Z,11.07
2019-03-26T12:52:16.253Z,11.53
2019-03-26T12:54:44.638Z,13.50
2019-03-26T12:57:14.666Z,12.23
2019-03-26T12:59:51.417Z,15.27
2019-03-26T13:02:19.809Z,11.73
2019-03-26T13:04:48.265Z,12.00
2019-03-26T13:07:19.414Z,10.23
2019-03-26T13:09:47.965Z,10.27
2019-03-26T13:12:17.381Z,10.63
2019-03-26T13:14:45.776Z,9.13
2019-03-26T13:17:15.237Z,9.60
2019-03-26T13:19:43.626Z,9.27
2019-03-26T13:22:13.045Z,11.40
2019-03-26T13:24:46.080Z,7.93
2019-03-26T13:27:17.473Z,9.47
2019-03-26T13:29:48.818Z,8.00
2019-03-26T13:32:23.232Z,7.50
2019-03-26T13:34:51.626Z,10.50
2019-03-26T13:37:40.174Z,9.37
2019-03-26T13:40:09.705Z,6.77
2019-03-26T13:42:43.373Z,9.17
2019-03-26T13:45:18.284Z,10.87
2019-03-26T13:47:49.382Z,7.50
2019-03-26T13:50:17.922Z,9.57
2019-03-26T13:52:53.721Z,8.60
2019-03-26T13:55:24.993Z,9.93
2019-03-26T13:57:55.018Z,6.03
2019-03-26T14:00:26.505Z,8.63
2019-03-26T14:02:57.805Z,12.83
2019-03-26T14:05:30.101Z,8.87
2019-03-26T14:07:58.488Z,7.97
2019-03-26T14:10:41.191Z,12.70
2019-03-26T14:13:12.834Z,13.23
2019-03-26T14:15:43.124Z,5.00
2019-03-26T14:18:14.785Z,9.47
2019-03-26T14:20:43.494Z,11.37
2019-03-26T14:23:13.513Z,5.93
2019-03-26T14:25:48.978Z,6.70
2019-03-26T14:28:20.428Z,7.37
2019-03-26T14:30:50.461Z,5.67
2019-03-26T14:33:19.854Z,6.83
2019-03-26T14:35:54.167Z,7.10
2019-03-26T14:38:25.929Z,5.97
2019-03-26T14:40:55.609Z,5.20
2019-03-26T14:43:27.910Z,4.53
2019-03-26T14:45:56.302Z,4.70
2019-03-26T14:48:26.570Z,9.23
2019-03-26T14:50:58.181Z,6.80
2019-03-26T14:53:27.736Z,7.67
2019-03-26T14:55:56.116Z,4.27
2019-03-26T14:58:24.521Z,4.53
2019-03-26T15:00:54.217Z,6.43
2019-03-26T15:03:27.485Z,7.63
2019-03-26T15:05:57.765Z,4.17
2019-03-26T15:08:26.394Z,4.50
2019-03-26T15:11:08.025Z,5.03
2019-03-26T15:13:28.097Z,6.77
2019-03-26T15:15:58.120Z,4.80
2019-03-26T15:18:29.186Z,5.50
2019-03-26T15:21:03.028Z,5.20
2019-03-26T15:23:31.413Z,7.90
2019-03-26T15:25:59.801Z,8.27
2019-03-26T15:28:33.714Z,8.33
2019-03-26T15:31:03.682Z,11.03
2019-03-26T15:33:33.823Z,6.13
2019-03-26T15:36:02.185Z,6.97
2019-03-26T15:38:32.141Z,8.30
2019-03-26T15:41:00.700Z,7.23
2019-03-26T15:43:29.132Z,11.33
2019-03-26T15:46:05.041Z,9.83
2019-03-26T15:48:33.429Z,7.60
2019-03-26T15:51:06.385Z,10.30
2019-03-26T15:53:37.448Z,7.63
2019-03-26T15:56:08.497Z,8.47
2019-03-26T15:58:38.529Z,8.57
2019-03-26T16:01:12.917Z,6.43
2019-03-26T16:03:42.914Z,4.67
2019-03-26T16:06:11.372Z,7.33
2019-03-26T16:08:45.505Z,8.80
2019-03-26T16:11:16.648Z,9.23
2019-03-26T16:13:54.775Z,9.27
2019-03-26T16:16:27.465Z,8.67
2019-03-26T16:18:59.172Z,9.53
2019-03-26T16:21:27.605Z,6.60
2019-03-26T16:23:56.645Z,11.57
2019-03-26T16:26:25.045Z,8.40
2019-03-26T16:28:53.425Z,13.17
2019-03-26T16:31:22.054Z,14.60
2019-03-26T16:33:51.985Z,15.70
2019-03-26T16:36:41.870Z,10.00
2019-03-26T16:39:10.570Z,13.50
2019-03-26T16:41:48.821Z,11.53
2019-03-26T16:44:12.162Z,12.93
2019-03-26T16:46:58.458Z,11.43
2019-03-26T16:49:26.846Z,9.63
2019-03-26T16:51:55.473Z,11.17
2019-03-26T16:54:23.845Z,9.33
2019-03-26T16:56:53.733Z,12.37
2019-03-26T16:59:30.824Z,8.37
2019-03-26T17:02:02.373Z,8.53
2019-03-26T17:04:30.768Z,8.37
2019-03-26T17:07:00.781Z,12.87
2019-03-26T17:09:29.345Z,10.47
2019-03-26T17:12:03.607Z,8.20
2019-03-26T17:14:31.422Z,8.40
2019-03-26T17:16:59.811Z,5.30
2019-03-26T17:19:28.218Z,10.37
2019-03-26T17:21:56.624Z,9.27
2019-03-26T17:24:27.737Z,9.73
2019-03-26T17:26:56.134Z,11.13
2019-03-26T17:29:50.549Z,11.30
2019-03-26T17:32:51.558Z,9.87
2019-03-26T17:35:19.938Z,6.93
2019-03-26T17:37:58.862Z,9.47
2019-03-26T17:40:22.610Z,7.57
2019-03-26T17:42:52.889Z,9.23
2019-03-26T17:45:22.809Z,9.17
2019-03-26T17:47:54.372Z,7.30
2019-03-26T17:50:22.749Z,7.30
2019-03-26T17:52:54.097Z,5.63
2019-03-26T17:55:22.497Z,11.37
2019-03-26T17:57:50.873Z,9.60
2019-03-26T18:00:50.020Z,9.10
2019-03-26T18:03:26.803Z,5.43
2019-03-26T18:05:56.953Z,7.57
2019-03-26T18:08:35.338Z,9.63
2019-03-26T18:11:04.253Z,6.73
2019-03-26T18:13:38.597Z,6.60
2019-03-26T18:16:28.553Z,12.40
2019-03-26T18:18:56.934Z,8.40
2019-03-26T18:21:25.372Z,4.90
2019-03-26T18:23:58.234Z,5.27
2019-03-26T18:26:26.608Z,8.40
2019-03-26T18:29:00.606Z,7.67
2019-03-26T18:31:31.921Z,10.80
2019-03-26T18:34:00.308Z,9.13
2019-03-26T18:36:31.457Z,9.23
2019-03-26T18:39:02.794Z,10.63
2019-03-26T18:41:31.177Z,9.20
2019-03-26T18:44:02.410Z,10.60
2019-03-26T18:46:30.807Z,11.17
2019-03-26T18:48:59.452Z,11.63
2019-03-26T18:51:30.778Z,12.97
2019-03-26T18:54:04.826Z,9.10
2019-03-26T18:56:33.448Z,11.97
2019-03-26T18:59:04.491Z,8.87
2019-03-26T19:01:35.783Z,14.00
2019-03-26T19:04:07.013Z,12.53
2019-03-26T19:06:38.061Z,10.10
2019-03-26T19:09:09.797Z,13.17
2019-03-26T19:11:38.422Z,8.37
2019-03-26T19:14:08.682Z,11.23
2019-03-26T19:16:37.901Z,12.53
2019-03-26T19:19:06.297Z,12.83
2019-03-26T19:21:34.691Z,6.10
2019-03-26T19:24:08.761Z,10.93
2019-03-26T19:26:37.152Z,11.57
2019-03-26T19:29:08.381Z,11.27
2019-03-26T19:31:39.821Z,12.53
2019-03-26T19:34:08.192Z,13.20
2019-03-26T19:36:36.572Z,11.07
2019-03-26T19:39:07.595Z,11.40
2019-03-26T19:41:39.583Z,15.73
2019-03-26T19:44:07.977Z,17.47
2019-03-26T19:46:39.300Z,11.30
2019-03-26T19:49:07.689Z,10.37
2019-03-26T19:51:36.133Z,14.63
2019-03-26T19:54:07.505Z,10.77
2019-03-26T19:56:35.898Z,10.33
2019-03-26T19:59:28.986Z,9.90
2019-03-26T20:02:03.381Z,11.87
2019-03-26T20:04:32.257Z,10.90
2019-03-26T20:07:00.963Z,10.93
2019-03-26T20:09:29.358Z,12.07
2019-03-26T20:12:01.856Z,14.03
2019-03-26T20:14:31.056Z,13.10
2019-03-26T20:17:01.769Z,15.80
2019-03-26T20:19:30.197Z,14.47
2019-03-26T20:21:58.658Z,15.47
2019-03-26T20:24:36.296Z,14.47
2019-03-26T20:27:07.618Z,17.93
2019-03-26T20:29:35.989Z,17.47
2019-03-26T20:32:04.392Z,13.57
2019-03-26T20:34:32.781Z,20.13
2019-03-26T20:37:15.893Z,17.47
2019-03-26T20:39:46.993Z,17.97
2019-03-26T20:42:15.486Z,22.73
2019-03-26T20:44:46.558Z,16.50
2019-03-26T20:47:15.093Z,22.60
2019-03-26T20:49:43.517Z,21.10
2019-03-26T20:52:11.911Z,21.40
2019-03-26T20:54:40.301Z,17.33
2019-03-26T20:57:08.704Z,14.07
2019-03-26T20:59:37.349Z,23.73
2019-03-26T21:02:05.761Z,21.43
2019-03-26T21:04:40.140Z,19.73
2019-03-26T21:07:11.281Z,25.13
2019-03-26T21:09:48.034Z,20.27
2019-03-26T21:12:16.460Z,21.90
2019-03-26T21:14:47.735Z,23.37
2019-03-26T21:17:16.118Z,23.97
2019-03-26T21:19:47.473Z,21.03
2019-03-26T21:22:20.211Z,19.23
2019-03-26T21:24:48.594Z,22.03
2019-03-26T21:27:17.905Z,24.77
2019-03-26T21:29:46.297Z,25.33
2019-03-26T21:32:14.690Z,16.90
2019-03-26T21:34:46.095Z,24.83
2019-03-26T21:37:15.064Z,18.77
2019-03-26T21:39:46.540Z,16.97
2019-03-26T21:42:18.081Z,20.47
2019-03-26T21:44:46.481Z,18.37
2019-03-26T21:47:17.545Z,22.67
2019-03-26T21:49:49.188Z,25.40
2019-03-26T21:52:17.552Z,18.07
2019-03-26T21:54:48.718Z,22.00
2019-03-26T21:57:20.168Z,24.80
2019-03-26T21:59:48.818Z,18.40
2019-03-26T22:02:17.204Z,20.27
2019-03-26T22:04:45.850Z,20.47
2019-03-26T22:07:16.958Z,21.90
2019-03-26T22:09:45.423Z,19.60
2019-03-26T22:12:15.553Z,20.20
2019-03-26T22:14:48.370Z,24.20
2019-03-26T22:17:18.425Z,22.10
2019-03-26T22:19:47.313Z,23.93
2019-03-26T22:22:15.750Z,21.13
2019-03-26T22:24:46.890Z,25.10
2019-03-26T22:27:15.282Z,22.70
2019-03-26T22:29:45.311Z,18.70
2019-03-26T22:32:13.705Z,18.50
2019-03-26T22:34:46.845Z,23.53
2019-03-26T22:37:15.272Z,21.77
2019-03-26T22:39:43.661Z,21.23
2019-03-26T22:42:13.685Z,30.17
2019-03-26T22:44:42.158Z,19.53
2019-03-26T22:47:15.172Z,21.53
2019-03-26T22:49:43.564Z,21.90
2019-03-26T22:52:11.951Z,24.10
2019-03-26T22:54:40.339Z,20.80
2019-03-26T22:57:10.936Z,18.73
2019-03-26T22:59:39.316Z,24.57
2019-03-26T23:02:07.954Z,23.03
2019-03-26T23:04:36.341Z,24.50
2019-03-26T23:07:06.378Z,28.43
2019-03-26T23:09:34.773Z,23.47
2019-03-26T23:12:05.852Z,21.87
2019-03-26T23:14:45.047Z,22.63
2019-03-26T23:17:10.972Z,26.70
2019-03-26T23:19:41.016Z,22.43
2019-03-26T23:22:12.182Z,25.00
2019-03-26T23:24:45.138Z,21.87
2019-03-26T23:27:18.134Z,25.73
2019-03-26T23:29:46.753Z,25.90
2019-03-26T23:32:18.286Z,24.53
2019-03-26T23:34:49.673Z,24.33
2019-03-26T23:37:21.290Z,20.50
2019-03-26T23:39:52.808Z,22.57
2019-03-26T23:42:22.057Z,21.83
2019-03-26T23:44:58.190Z,24.63
2019-03-26T23:47:24.918Z,24.43
2019-03-26T23:49:53.392Z,25.63
2019-03-26T23:52:22.021Z,23.87
2019-03-26T23:54:53.136Z,19.33
2019-03-26T23:57:27.623Z,26.33
